Time;durP1;ratioP1;P1;durP2;ratioP2;P2;SDS_P1;SDS_P2;PMS_P1;PMS_P2;Temp;Humidity;BMP_temperature;BMP_pressure;BME280_temperature;BME280_humidity;BME280_pressure;Samples;Min_cycle;Max_cycle;Signal;HPM_P1;HPM_P2
2022/12/26 00:00:34;;;;;;;18.93;10.10;;;;;;;7.96;100.00;100143.78;4823326;29;20042;-81
2022/12/26 00:03:01;;;;;;;17.87;10.40;;;;;;;7.92;100.00;100142.97;4825008;29;20489;-80
2022/12/26 00:05:28;;;;;;;18.40;9.57;;;;;;;8.01;100.00;100145.44;4807685;29;20057;-81
2022/12/26 00:07:55;;;;;;;16.67;10.27;;;;;;;8.07;100.00;100147.06;4822433;29;20450;-81
2022/12/26 00:10:21;;;;;;;17.13;9.87;;;;;;;7.98;100.00;100149.88;4805218;29;20054;-80
2022/12/26 00:12:48;;;;;;;15.83;9.33;;;;;;;7.99;100.00;100138.44;4810543;29;20117;-81
2022/12/26 00:15:15;;;;;;;14.47;9.93;;;;;;;8.03;100.00;100127.84;4828982;29;20050;-80
2022/12/26 00:17:42;;;;;;;17.97;10.27;;;;;;;8.03;100.00;100129.63;4825908;29;20041;-80
2022/12/26 00:20:09;;;;;;;16.90;10.30;;;;;;;7.99;100.00;100128.81;4792945;29;20066;-81
2022/12/26 00:22:35;;;;;;;16.23;9.93;;;;;;;8.08;100.00;100125.16;4821832;29;20509;-79
2022/12/26 00:25:02;;;;;;;15.93;10.13;;;;;;;8.01;100.00;100124.41;4791105;29;20390;-80
2022/12/26 00:27:29;;;;;;;16.03;9.23;;;;;;;8.07;100.00;100111.13;4792702;29;20050;-80
2022/12/26 00:29:56;;;;;;;15.55;9.00;;;;;;;7.98;100.00;100107.78;4825040;29;20046;-80
2022/12/26 00:32:22;;;;;;;17.03;10.20;;;;;;;8.04;100.00;100100.66;4809383;29;20050;-80
2022/12/26 00:34:49;;;;;;;15.70;9.57;;;;;;;8.00;100.00;100104.25;4804858;29;20561;-79
2022/12/26 00:37:16;;;;;;;17.20;8.80;;;;;;;8.01;100.00;100115.63;4808492;29;20179;-80
2022/12/26 00:39:46;;;;;;;16.07;9.10;;;;;;;8.04;100.00;100116.44;4793660;29;20125;-80
2022/12/26 00:42:12;;;;;;;15.37;9.40;;;;;;;8.00;100.00;100113.91;4837364;29;20054;-80
2022/12/26 00:44:39;;;;;;;16.77;9.63;;;;;;;8.02;100.00;100099.81;4823220;29;20501;-81
2022/12/26 00:47:06;;;;;;;15.00;8.40;;;;;;;8.04;100.00;100102.41;4811380;29;20414;-79
2022/12/26 00:49:32;;;;;;;13.63;8.30;;;;;;;7.93;100.00;100100.00;4808071;29;20046;-81
2022/12/26 00:52:19;;;;;;;14.37;8.70;;;;;;;7.94;100.00;100082.44;4822522;29;20042;-79
2022/12/26 00:54:46;;;;;;;14.57;9.50;;;;;;;7.99;100.00;100081.47;4804953;29;20137;-80
2022/12/26 00:57:12;;;;;;;15.53;8.87;;;;;;;8.01;100.00;100084.06;4821889;29;20046;-81
2022/12/26 00:59:39;;;;;;;13.07;8.57;;;;;;;8.10;100.00;100074.22;4833719;29;20046;-81
2022/12/26 01:02:36;;;;;;;14.43;9.50;;;;;;;8.13;100.00;100084.69;4803783;29;20050;-83
2022/12/26 01:04:52;;;;;;;15.40;8.23;;;;;;;8.07;100.00;100073.41;4818087;29;20418;-81
2022/12/26 01:07:19;;;;;;;13.13;8.73;;;;;;;8.01;100.00;100070.91;4807285;29;20509;-81
2022/12/26 01:09:48;;;;;;;12.47;8.50;;;;;;;8.09;100.00;100061.97;4801065;29;20561;-82
2022/12/26 01:12:14;;;;;;;15.20;8.95;;;;;;;8.14;100.00;100082.91;4816588;29;20570;-81
2022/12/26 01:14:41;;;;;;;17.30;9.23;;;;;;;8.26;100.00;100068.66;4803647;29;20050;-82
2022/12/26 01:17:08;;;;;;;13.57;8.40;;;;;;;8.22;100.00;100069.63;4815324;29;20458;-82
2022/12/26 01:19:36;;;;;;;12.35;9.10;;;;;;;8.25;100.00;100059.91;4806160;29;20471;-80
2022/12/26 01:22:02;;;;;;;14.23;8.80;;;;;;;8.33;100.00;100063.25;4820489;29;20039;-81
2022/12/26 01:24:30;;;;;;;14.87;8.60;;;;;;;8.27;100.00;100052.84;4802968;29;20052;-81
2022/12/26 01:26:56;;;;;;;14.10;8.30;;;;;;;8.34;100.00;100061.47;4801054;29;20058;-81
2022/12/26 01:29:23;;;;;;;12.20;8.00;;;;;;;8.34;100.00;100064.97;4819464;29;20457;-81
2022/12/26 01:31:50;;;;;;;10.25;7.43;;;;;;;8.41;100.00;100066.63;4808618;29;20185;-80
2022/12/26 01:34:16;;;;;;;11.77;7.43;;;;;;;8.43;100.00;100064.81;4805544;29;20046;-80
2022/12/26 01:36:43;;;;;;;11.55;7.65;;;;;;;8.44;100.00;100066.53;4792294;29;20123;-81
2022/12/26 01:39:10;;;;;;;10.93;7.33;;;;;;;8.36;100.00;100059.72;4802868;29;20057;-81
2022/12/26 01:41:36;;;;;;;9.85;6.82;;;;;;;8.39;100.00;100052.59;4802081;29;20050;-82
2022/12/26 01:44:25;;;;;;;10.88;7.90;;;;;;;8.38;100.00;100053.50;4805705;29;20057;-83
2022/12/26 01:46:52;;;;;;;10.90;7.30;;;;;;;8.29;100.00;100056.31;4834024;29;20057;-80
2022/12/26 01:49:26;;;;;;;12.13;8.02;;;;;;;8.32;100.00;100050.97;4823278;29;20462;-81
2022/12/26 01:52:00;;;;;;;13.63;8.55;;;;;;;8.27;100.00;100044.09;4818761;29;20051;-80
2022/12/26 01:54:29;;;;;;;11.88;7.53;;;;;;;8.34;100.00;100051.81;4821077;29;20069;-81
2022/12/26 01:57:22;;;;;;;10.20;7.32;;;;;;;8.44;100.00;100056.03;4809675;29;20113;-82
2022/12/26 01:59:50;;;;;;;11.40;8.10;;;;;;;8.36;100.00;100052.69;4835466;29;20042;-83
2022/12/26 02:02:19;;;;;;;12.50;7.83;;;;;;;8.31;100.00;100041.34;4822817;29;20075;-81
2022/12/26 02:07:34;;;;;;;10.10;7.10;;;;;;;8.39;100.00;100035.94;4828962;29;20043;-82
2022/12/26 02:10:01;;;;;;;10.90;7.53;;;;;;;8.33;100.00;100033.44;4808333;29;20047;-80
2022/12/26 02:12:29;;;;;;;11.88;7.63;;;;;;;8.36;100.00;100031.63;4829627;29;20440;-81
2022/12/26 02:15:07;;;;;;;10.45;6.55;;;;;;;8.38;100.00;100045.59;4794799;29;20042;-82
2022/12/26 02:17:35;;;;;;;10.55;7.13;;;;;;;8.40;100.00;100040.31;4819032;29;20116;-80
2022/12/26 02:20:40;;;;;;;11.88;7.30;;;;;;;8.38;100.00;100040.34;4817862;29;20046;-82
2022/12/26 02:23:25;;;;;;;;;;;;;;;8.40;100.00;100046.44;4779838;29;20043;-81
2022/12/26 02:26:03;;;;;;;12.27;6.90;;;;;;;8.41;100.00;100036.81;4765785;30;19990;-82
2022/12/26 02:28:56;;;;;;;11.10;7.40;;;;;;;8.45;100.00;100033.19;4787369;29;20099;-82
2022/12/26 02:31:35;;;;;;;11.77;7.22;;;;;;;8.41;100.00;100031.53;4804200;29;20043;-82
2022/12/26 02:34:10;;;;;;;10.10;7.03;;;;;;;8.38;100.00;100037.72;4804884;29;20046;-83
2022/12/26 02:36:49;;;;;;;8.65;6.57;;;;;;;8.36;100.00;100038.66;4806335;29;20038;-81
2022/12/26 02:39:39;;;;;;;10.98;7.30;;;;;;;8.39;100.00;100044.72;4826424;29;20046;-82
2022/12/26 02:42:36;;;;;;;11.80;7.65;;;;;;;8.46;100.00;100046.31;4794619;29;20123;-82
2022/12/26 02:48:47;;;;;;;11.65;6.18;;;;;;;8.42;100.00;100028.00;4834384;29;20125;-82
2022/12/26 03:14:43;;;;;;;8.68;6.57;;;;;;;8.39;100.00;100026.28;4822429;29;20050;-81
2022/12/26 03:17:19;;;;;;;9.45;6.88;;;;;;;8.32;100.00;100019.38;4827414;29;20042;-80
2022/12/26 03:20:00;;;;;;;11.90;7.07;;;;;;;8.32;100.00;100026.41;4831242;29;20087;-80
2022/12/26 03:22:31;;;;;;;10.55;7.35;;;;;;;8.30;100.00;100046.63;4816839;29;20046;-81
2022/12/26 03:27:46;;;;;;;13.63;7.13;;;;;;;8.30;100.00;100015.91;4817439;29;20041;-79
2022/12/26 03:32:58;;;;;;;11.80;7.07;;;;;;;8.29;100.00;100037.88;4828511;29;20042;-80
2022/12/26 03:35:29;;;;;;;10.82;7.18;;;;;;;8.27;100.00;100018.63;4826891;29;20107;-80
2022/12/26 03:38:01;;;;;;;11.00;7.05;;;;;;;8.35;100.00;100034.28;4812703;29;20664;-80
2022/12/26 04:44:14;;;;;;;11.30;7.75;;;;;;;8.60;100.00;100064.44;4808845;29;20697;-80
2022/12/26 04:46:44;;;;;;;10.23;7.25;;;;;;;8.52;100.00;100065.53;4813328;29;20580;-80
2022/12/26 04:52:08;;;;;;;11.85;7.43;;;;;;;8.62;100.00;100074.94;4818900;29;20049;-80
2022/12/26 04:54:34;;;;;;;14.05;8.43;;;;;;;8.64;100.00;100068.75;4842894;29;20057;-79
2022/12/26 04:57:01;;;;;;;12.93;8.18;;;;;;;8.74;100.00;100079.94;4804020;29;20072;-79
2022/12/26 04:59:28;;;;;;;10.95;7.88;;;;;;;8.73;100.00;100086.97;4824226;29;20489;-80
2022/12/26 05:10:17;;;;;;;12.95;8.88;;;;;;;8.69;100.00;100103.75;4822341;29;20054;-80
2022/12/26 05:12:44;;;;;;;11.88;8.35;;;;;;;8.66;100.00;100098.56;4820286;29;20465;-80
2022/12/26 05:15:10;;;;;;;14.15;8.13;;;;;;;8.71;100.00;100098.44;4823211;29;20789;-79
2022/12/26 05:28:43;;;;;;;10.35;7.32;;;;;;;8.79;100.00;100104.41;4833319;29;20042;-79
2022/12/26 05:31:16;;;;;;;8.70;6.13;;;;;;;8.80;100.00;100094.75;4814785;29;20046;-80
2022/12/26 05:36:50;;;;;;;8.27;6.18;;;;;;;8.80;100.00;100097.38;4823918;29;20047;-80
2022/12/26 05:39:17;;;;;;;10.50;7.30;;;;;;;8.76;100.00;100096.59;4827446;29;20541;-80
2022/12/26 05:41:43;;;;;;;11.90;5.72;;;;;;;8.88;100.00;100105.97;4818279;29;20053;-81
2022/12/26 05:44:10;;;;;;;9.32;6.07;;;;;;;8.89;100.00;100102.44;4819968;29;20054;-80
2022/12/26 05:46:37;;;;;;;7.70;5.70;;;;;;;8.77;100.00;100108.84;4824534;29;20039;-81
2022/12/26 05:49:05;;;;;;;8.75;5.20;;;;;;;8.88;100.00;100106.84;4805470;29;20527;-82
2022/12/26 05:51:31;;;;;;;6.65;4.80;;;;;;;8.80;100.00;100110.53;4838986;29;20438;-81
2022/12/26 05:53:58;;;;;;;6.78;4.50;;;;;;;8.82;100.00;100106.97;4836612;29;20106;-81
2022/12/26 05:56:25;;;;;;;7.03;4.47;;;;;;;8.77;100.00;100111.50;4805268;29;20051;-81
2022/12/26 05:58:57;;;;;;;7.00;4.82;;;;;;;8.81;100.00;100104.38;4807351;29;20408;-81
2022/12/26 06:01:24;;;;;;;8.13;4.47;;;;;;;8.71;100.00;100106.34;4835917;29;20111;-81
2022/12/26 06:03:54;;;;;;;7.05;4.35;;;;;;;8.74;100.00;100115.06;4806416;29;20065;-82
2022/12/26 06:06:22;;;;;;;6.60;4.25;;;;;;;8.75;100.00;100108.03;4824119;29;20062;-81
2022/12/26 06:08:50;;;;;;;4.90;3.42;;;;;;;8.75;100.00;100110.66;4791628;29;20042;-81
2022/12/26 06:11:17;;;;;;;5.72;4.10;;;;;;;8.78;100.00;100118.47;4822456;29;20116;-80
2022/12/26 06:13:44;;;;;;;6.15;4.28;;;;;;;8.74;100.00;100120.34;4819107;29;20035;-81
2022/12/26 06:16:13;;;;;;;6.80;4.78;;;;;;;8.70;100.00;100123.91;4824210;29;20044;-82
2022/12/26 06:18:40;;;;;;;6.60;4.43;;;;;;;8.72;100.00;100130.00;4806577;29;20621;-81
2022/12/26 06:21:13;;;;;;;7.53;4.30;;;;;;;8.76;100.00;100128.19;4810610;29;20058;-80
2022/12/26 06:23:40;;;;;;;6.50;4.90;;;;;;;8.76;100.00;100127.31;4817737;29;20129;-81
2022/12/26 06:26:08;;;;;;;6.55;4.63;;;;;;;8.78;100.00;100139.56;4819222;29;20047;-81
2022/12/26 06:28:36;;;;;;;8.35;5.32;;;;;;;8.74;100.00;100130.88;4821230;29;20050;-81
2022/12/26 06:31:04;;;;;;;7.07;5.15;;;;;;;8.81;100.00;100128.94;4804935;29;20058;-80
2022/12/26 06:33:31;;;;;;;9.20;5.43;;;;;;;8.81;100.00;100130.72;4805312;29;20046;-79
2022/12/26 06:36:06;;;;;;;7.63;4.63;;;;;;;8.74;100.00;100120.34;4806332;29;20053;-80
2022/12/26 06:38:33;;;;;;;7.10;4.90;;;;;;;8.84;100.00;100115.72;4835104;29;20356;-81
2022/12/26 06:41:00;;;;;;;7.93;5.40;;;;;;;8.87;100.00;100114.78;4820054;29;20049;-80
2022/12/26 06:43:26;;;;;;;6.35;4.80;;;;;;;8.81;100.00;100113.13;4821001;29;20054;-80
2022/12/26 06:45:54;;;;;;;6.55;4.38;;;;;;;8.87;100.00;100112.16;4818481;29;20074;-80
2022/12/26 06:48:22;;;;;;;6.78;4.43;;;;;;;8.93;100.00;100114.66;4804440;29;20043;-80
2022/12/26 06:50:49;;;;;;;5.97;3.90;;;;;;;8.86;100.00;100124.44;4834227;29;20098;-81
2022/12/26 06:53:16;;;;;;;6.43;4.53;;;;;;;8.89;100.00;100129.63;4803892;29;20042;-81
2022/12/26 06:55:42;;;;;;;7.10;4.90;;;;;;;8.88;100.00;100127.03;4810800;29;20077;-81
2022/12/26 06:58:09;;;;;;;5.82;4.00;;;;;;;8.82;100.00;100128.03;4823020;29;20049;-81
2022/12/26 07:00:36;;;;;;;5.95;4.07;;;;;;;8.84;100.00;100143.84;4802148;29;20107;-81
2022/12/26 07:03:03;;;;;;;6.80;4.50;;;;;;;8.85;100.00;100151.69;4789660;29;20058;-80
2022/12/26 07:05:30;;;;;;;6.38;3.78;;;;;;;8.87;100.00;100156.94;4836161;29;20111;-79
2022/12/26 07:07:57;;;;;;;5.35;4.05;;;;;;;8.78;100.00;100163.25;4821740;29;20400;-79
2022/12/26 07:10:24;;;;;;;5.18;4.05;;;;;;;8.87;100.00;100178.88;4809495;29;20063;-78
2022/12/26 07:12:50;;;;;;;4.68;3.95;;;;;;;8.91;100.00;100172.66;4825951;29;20084;-80
2022/12/26 07:15:17;;;;;;;5.57;3.97;;;;;;;8.85;100.00;100185.06;4830618;29;20073;-80
2022/12/26 07:17:44;;;;;;;4.93;4.18;;;;;;;8.87;100.00;100184.13;4824323;29;20127;-81
2022/12/26 07:20:11;;;;;;;5.30;3.85;;;;;;;8.87;100.00;100186.78;4801460;29;20050;-80
2022/12/26 07:22:38;;;;;;;3.65;2.72;;;;;;;8.87;100.00;100194.66;4826293;29;20042;-79
2022/12/26 07:25:05;;;;;;;2.95;2.30;;;;;;;8.85;100.00;100190.34;4826245;29;20047;-78
2022/12/26 07:27:31;;;;;;;4.75;3.30;;;;;;;8.85;100.00;100199.13;4798309;29;20080;-80
2022/12/26 07:29:58;;;;;;;5.47;3.67;;;;;;;8.86;100.00;100194.72;4813085;29;20128;-80
2022/12/26 07:32:26;;;;;;;5.15;4.05;;;;;;;8.79;100.00;100196.59;4824756;29;20039;-80
2022/12/26 07:34:52;;;;;;;6.30;4.40;;;;;;;8.90;100.00;100202.50;4813771;29;20077;-80
2022/12/26 07:37:19;;;;;;;5.43;4.30;;;;;;;8.86;100.00;100190.31;4811539;29;20050;-79
2022/12/26 07:39:45;;;;;;;5.28;3.80;;;;;;;8.83;100.00;100193.03;4809474;29;20497;-80
2022/12/26 07:42:12;;;;;;;4.18;3.53;;;;;;;8.80;100.00;100198.31;4841863;29;20046;-78
2022/12/26 07:44:39;;;;;;;4.88;3.92;;;;;;;8.85;100.00;100200.88;4829032;29;20048;-80
2022/12/26 07:47:06;;;;;;;4.57;3.80;;;;;;;8.85;100.00;100207.00;4810999;29;20062;-81
2022/12/26 07:49:33;;;;;;;6.55;4.40;;;;;;;8.86;100.00;100206.13;4845446;29;20108;-79
2022/12/26 07:52:00;;;;;;;5.38;3.80;;;;;;;8.84;100.00;100213.19;4838324;23;20053;-83
2022/12/26 07:54:28;;;;;;;21.05;11.55;;;;;;;8.85;100.00;100214.06;4805666;29;20062;-82
2022/12/26 07:56:55;;;;;;;49.78;28.92;;;;;;;8.84;100.00;100221.09;4802719;29;20035;-82
2022/12/26 07:59:42;;;;;;;15.88;12.30;;;;;;;8.88;100.00;100224.50;4794940;29;20074;-82
2022/12/26 08:02:09;;;;;;;7.93;6.45;;;;;;;8.82;100.00;100220.22;4808592;29;20054;-82
2022/12/26 08:04:37;;;;;;;5.38;3.92;;;;;;;8.84;100.00;100210.56;4819864;29;20042;-82
2022/12/26 08:07:03;;;;;;;6.07;4.63;;;;;;;8.83;100.00;100218.47;4795262;29;20057;-82
2022/12/26 08:09:30;;;;;;;6.72;6.13;;;;;;;8.88;100.00;100227.16;4803024;29;20038;-82
2022/12/26 08:11:57;;;;;;;7.00;5.88;;;;;;;8.86;100.00;100221.91;4804570;29;20052;-82
2022/12/26 08:14:24;;;;;;;7.85;7.05;;;;;;;8.84;100.00;100222.84;4797064;29;20098;-81
2022/12/26 08:16:50;;;;;;;5.65;4.00;;;;;;;8.82;100.00;100212.31;4819718;29;20053;-83
2022/12/26 08:19:19;;;;;;;6.15;3.97;;;;;;;8.78;100.00;100215.94;4793697;29;20125;-83
2022/12/26 08:21:46;;;;;;;5.78;4.50;;;;;;;8.86;100.00;100211.38;4786832;29;20049;-84
2022/12/26 08:24:13;;;;;;;4.53;3.47;;;;;;;8.83;100.00;100216.72;4810374;29;20050;-85
2022/12/26 08:26:40;;;;;;;5.53;4.03;;;;;;;8.82;100.00;100212.31;4789447;29;20042;-84
2022/12/26 08:29:09;;;;;;;5.82;3.90;;;;;;;8.83;100.00;100216.72;4804448;29;20066;-85
2022/12/26 08:31:36;;;;;;;5.97;3.85;;;;;;;8.88;100.00;100211.34;4798469;29;20524;-82
2022/12/26 08:34:02;;;;;;;4.78;3.17;;;;;;;8.80;100.00;100224.66;4824064;29;20047;-84
2022/12/26 08:36:29;;;;;;;6.50;5.07;;;;;;;8.89;100.00;100219.22;4824528;29;20042;-83
2022/12/26 08:38:57;;;;;;;4.35;3.67;;;;;;;8.91;100.00;100219.16;4812275;29;20134;-82
2022/12/26 08:41:24;;;;;;;11.55;10.52;;;;;;;8.91;100.00;100225.34;4807788;29;20038;-83
2022/12/26 08:43:51;;;;;;;5.80;4.47;;;;;;;8.81;100.00;100220.25;4810743;29;20050;-83
2022/12/26 08:46:38;;;;;;;5.40;3.75;;;;;;;8.85;100.00;100217.56;4816582;29;20049;-82
2022/12/26 08:49:05;;;;;;;5.00;3.75;;;;;;;8.77;100.00;100215.97;4827044;29;20042;-83
2022/12/26 08:51:31;;;;;;;5.22;3.70;;;;;;;8.86;100.00;100215.78;4807806;29;20534;-85
2022/12/26 08:53:58;;;;;;;4.78;3.80;;;;;;;8.90;100.00;100222.72;4809176;29;20074;-83
2022/12/26 08:56:27;;;;;;;4.50;3.60;;;;;;;8.88;100.00;100230.66;4801446;29;20046;-84
2022/12/26 08:58:54;;;;;;;4.72;3.47;;;;;;;8.91;100.00;100222.69;4825890;29;20042;-83
2022/12/26 09:01:23;;;;;;;4.32;3.08;;;;;;;8.94;100.00;100230.53;4792185;29;20412;-84
2022/12/26 09:03:55;;;;;;;4.95;3.72;;;;;;;9.02;100.00;100233.00;4795299;29;20046;-84
2022/12/26 09:06:23;;;;;;;4.63;3.13;;;;;;;8.98;100.00;100242.72;4823335;29;20062;-85
2022/12/26 09:08:50;;;;;;;3.85;3.08;;;;;;;9.01;100.00;100236.56;4807159;29;20042;-85
2022/12/26 09:11:20;;;;;;;4.90;3.45;;;;;;;9.00;100.00;100237.44;4792804;29;20115;-84
2022/12/26 09:13:47;;;;;;;4.25;3.22;;;;;;;9.02;100.00;100247.06;4809155;29;20049;-83
2022/12/26 09:16:19;;;;;;;4.10;3.40;;;;;;;8.98;100.00;100242.72;4805126;29;20047;-85
2022/12/26 09:18:47;;;;;;;4.55;3.45;;;;;;;9.04;100.00;100247.00;4807469;29;20065;-84
2022/12/26 09:21:15;;;;;;;4.75;3.33;;;;;;;9.02;100.00;100244.41;4822474;29;20074;-85
2022/12/26 09:23:42;;;;;;;5.10;3.83;;;;;;;9.06;100.00;100247.84;4809033;29;20042;-84
2022/12/26 09:26:12;;;;;;;5.45;3.85;;;;;;;9.06;100.00;100246.97;4806368;29;20602;-82
2022/12/26 09:28:39;;;;;;;5.28;4.00;;;;;;;9.17;100.00;100247.63;4823612;29;20042;-84
2022/12/26 09:31:09;;;;;;;4.80;3.85;;;;;;;9.20;100.00;100250.19;4806709;29;20038;-83
2022/12/26 09:33:37;;;;;;;4.95;3.67;;;;;;;9.19;100.00;100259.00;4807773;29;20070;-81
2022/12/26 09:36:05;;;;;;;5.90;3.28;;;;;;;9.16;100.00;100248.50;4818426;29;20065;-82
2022/12/26 09:38:40;;;;;;;5.63;3.90;;;;;;;9.16;100.00;100252.00;4808053;29;20401;-82
2022/12/26 09:41:25;;;;;;;6.13;4.00;;;;;;;9.13;100.00;100251.22;4806119;29;20097;-83
2022/12/26 09:44:14;;;;;;;5.63;3.13;;;;;;;9.20;100.00;100260.75;4816646;29;20049;-83
2022/12/26 09:46:59;;;;;;;4.80;3.33;;;;;;;9.19;100.00;100241.44;4805141;29;20054;-83
2022/12/26 09:49:32;;;;;;;5.30;3.13;;;;;;;9.17;100.00;100247.63;4809820;29;20042;-84
2022/12/26 09:52:04;;;;;;;4.43;3.05;;;;;;;9.21;100.00;100250.16;4808383;29;20050;-84
2022/12/26 09:54:38;;;;;;;13.45;8.38;;;;;;;9.23;100.00;100244.84;4807207;29;20049;-84
2022/12/26 09:57:08;;;;;;;28.13;15.45;;;;;;;9.14;100.00;100255.59;4818281;29;20102;-83
2022/12/26 09:59:49;;;;;;;15.35;8.65;;;;;;;9.18;100.00;100249.38;4792282;29;20035;-82
2022/12/26 10:02:17;;;;;;;14.63;10.80;;;;;;;9.24;100.00;100257.13;4815300;29;20527;-83
2022/12/26 10:04:44;;;;;;;6.63;3.75;;;;;;;9.31;100.00;100262.22;4797649;29;20050;-82
2022/12/26 10:07:28;;;;;;;5.65;3.90;;;;;;;9.28;100.00;100240.34;4819729;29;20580;-83
2022/12/26 10:10:10;;;;;;;10.68;7.07;;;;;;;9.31;100.00;100256.09;4802082;29;20043;-83
2022/12/26 10:12:40;;;;;;;13.48;10.57;;;;;;;9.36;100.00;100240.19;4811002;29;20046;-83
2022/12/26 10:15:23;;;;;;;8.55;5.90;;;;;;;9.40;100.00;100244.47;4799484;29;20042;-82
2022/12/26 10:18:22;;;;;;;4.93;3.38;;;;;;;9.36;100.00;100243.69;4804910;29;20136;-82
2022/12/26 10:20:51;;;;;;;5.90;3.05;;;;;;;9.43;100.00;100253.22;4811879;29;20054;-83
2022/12/26 10:23:45;;;;;;;4.50;3.03;;;;;;;9.42;100.00;100263.78;4800233;29;20046;-83
2022/12/26 10:26:19;;;;;;;6.30;4.28;;;;;;;9.39;100.00;100272.63;4802518;29;20763;-84
2022/12/26 10:28:58;;;;;;;10.85;8.45;;;;;;;9.32;100.00;100285.06;4788347;29;20453;-83
2022/12/26 10:31:37;;;;;;;6.68;4.05;;;;;;;9.44;100.00;100296.25;4790242;29;20508;-84
2022/12/26 10:34:26;;;;;;;6.60;5.18;;;;;;;9.38;100.00;100299.88;4805995;29;20042;-83
2022/12/26 10:37:00;;;;;;;5.70;3.63;;;;;;;9.32;100.00;100292.97;4791288;29;20066;-83
2022/12/26 10:39:47;;;;;;;16.05;11.07;;;;;;;9.43;100.00;100292.75;4783160;29;20069;-82
2022/12/26 10:42:25;;;;;;;7.78;4.80;;;;;;;9.34;100.00;100281.53;4798520;29;20178;-83
2022/12/26 10:44:52;;;;;;;8.05;5.20;;;;;;;9.33;100.00;100267.47;4802656;29;20129;-82
2022/12/26 10:47:25;;;;;;;9.38;6.88;;;;;;;9.32;100.00;100277.16;4828134;29;20473;-82
2022/12/26 10:49:58;;;;;;;10.45;7.78;;;;;;;9.26;100.00;100279.06;4805457;29;20517;-83
2022/12/26 10:52:30;;;;;;;20.65;14.02;;;;;;;9.31;100.00;100271.91;4808789;29;20104;-83
2022/12/26 10:54:59;;;;;;;12.07;8.00;;;;;;;9.22;100.00;100280.03;4826026;29;20042;-86
2022/12/26 10:57:48;;;;;;;7.65;5.60;;;;;;;9.33;100.00;100280.66;4814547;29;20053;-82
2022/12/26 11:00:23;;;;;;;6.78;5.38;;;;;;;9.32;100.00;100276.28;4817423;29;20034;-84
2022/12/26 11:03:11;;;;;;;11.55;8.68;;;;;;;9.37;100.00;100274.44;4799206;29;20069;-84
2022/12/26 11:05:55;;;;;;;7.50;5.90;;;;;;;9.36;100.00;100267.41;4811772;29;20079;-84
2022/12/26 11:08:48;;;;;;;6.50;4.60;;;;;;;9.34;100.00;100266.59;4820024;29;20137;-84
2022/12/26 11:11:23;;;;;;;8.40;5.18;;;;;;;9.31;100.00;100267.50;4805151;29;20448;-84
2022/12/26 11:13:53;;;;;;;7.65;5.18;;;;;;;9.34;100.00;100268.38;4805008;29;20043;-83
2022/12/26 11:16:37;;;;;;;7.28;5.25;;;;;;;9.31;100.00;100272.78;4792233;29;20728;-83
2022/12/26 11:19:05;;;;;;;5.40;4.45;;;;;;;9.31;100.00;100274.53;4808655;29;20061;-82
2022/12/26 11:21:32;;;;;;;7.28;5.07;;;;;;;9.33;100.00;100267.47;4819264;29;20038;-83
2022/12/26 11:24:08;;;;;;;9.23;7.18;;;;;;;9.29;100.00;100265.81;4803659;29;20133;-83
2022/12/26 11:26:36;;;;;;;9.13;6.60;;;;;;;9.21;100.00;100284.44;4829267;29;20050;-82
2022/12/26 11:29:10;;;;;;;12.05;10.07;;;;;;;9.31;100.00;100287.72;4805301;29;20106;-83
2022/12/26 11:32:02;;;;;;;10.18;4.60;;;;;;;9.35;100.00;100285.91;4804871;29;20041;-84
2022/12/26 11:34:35;;;;;;;6.95;4.40;;;;;;;9.24;100.00;100283.47;4829399;29;20053;-84
2022/12/26 11:37:03;;;;;;;6.60;4.47;;;;;;;9.25;100.00;100283.47;4810873;29;20049;-83
2022/12/26 11:39:33;;;;;;;6.28;4.72;;;;;;;9.25;100.00;100275.56;4803700;29;20046;-83
2022/12/26 11:41:59;;;;;;;6.05;3.85;;;;;;;9.22;100.00;100272.97;4819957;29;20046;-83
2022/12/26 11:44:33;;;;;;;6.35;4.50;;;;;;;9.22;100.00;100274.75;4820013;29;20039;-83
2022/12/26 11:47:11;;;;;;;7.10;4.50;;;;;;;9.23;100.00;100263.31;4807072;29;20046;-85
2022/12/26 11:49:37;;;;;;;6.85;3.80;;;;;;;9.22;100.00;100267.72;4819266;29;20050;-84
2022/12/26 11:52:43;;;;;;;16.58;10.70;;;;;;;9.24;100.00;100278.22;4806869;29;20046;-83
2022/12/26 11:55:22;;;;;;;14.82;9.85;;;;;;;9.20;100.00;100287.09;4829211;29;20575;-84
2022/12/26 11:58:05;;;;;;;11.75;7.70;;;;;;;9.18;100.00;100302.94;4804220;29;20050;-83
2022/12/26 12:00:41;;;;;;;6.65;4.57;;;;;;;9.21;100.00;100307.28;4813693;29;20547;-84
2022/12/26 12:03:28;;;;;;;7.68;5.45;;;;;;;9.22;100.00;100309.88;4800853;29;20074;-83
2022/12/26 12:06:02;;;;;;;5.78;4.45;;;;;;;9.21;100.00;100286.19;4796474;29;20557;-83
2022/12/26 12:08:43;;;;;;;;;;;;;;;9.07;100.00;100277.69;4817701;29;20042;-83
2022/12/26 12:11:09;;;;;;;6.45;4.90;;;;;;;9.15;100.00;100267.88;4803447;29;21413;-82
2022/12/26 12:13:45;;;;;;;6.50;5.57;;;;;;;9.13;100.00;100251.22;4810889;29;20132;-82
2022/12/26 12:16:42;;;;;;;5.95;4.70;;;;;;;9.10;100.00;100261.84;4798359;29;20054;-84
2022/12/26 12:19:33;;;;;;;6.05;4.30;;;;;;;9.10;100.00;100259.19;4802369;29;20134;-83
2022/12/26 12:22:06;;;;;;;6.63;4.97;;;;;;;9.13;100.00;100253.84;4820282;29;20118;-83
2022/12/26 12:24:43;;;;;;;6.75;4.70;;;;;;;9.05;100.00;100250.50;4817470;29;20103;-83
2022/12/26 12:27:20;;;;;;;5.28;3.58;;;;;;;9.10;100.00;100254.81;4789771;29;20699;-82
2022/12/26 12:30:15;;;;;;;5.30;4.00;;;;;;;9.12;100.00;100260.91;4809120;29;20045;-83
2022/12/26 12:33:42;;;;;;;4.78;3.38;;;;;;;9.03;100.00;100269.00;4809939;29;20046;-83
2022/12/26 12:36:21;;;;;;;5.68;3.92;;;;;;;9.03;100.00;100272.50;4777821;30;20083;-83
2022/12/26 12:39:01;;;;;;;7.40;5.45;;;;;;;9.13;100.00;100273.16;4772667;30;20067;-83
2022/12/26 12:41:54;;;;;;;5.35;4.18;;;;;;;9.18;100.00;100267.81;4769872;29;20057;-85
2022/12/26 12:44:37;;;;;;;7.47;4.10;;;;;;;9.18;100.00;100254.63;4801956;29;20042;-83
2022/12/26 12:47:39;;;;;;;6.35;3.95;;;;;;;9.19;100.00;100253.75;4819714;29;20300;-83
2022/12/26 12:50:17;;;;;;;5.30;3.28;;;;;;;9.29;100.00;100245.59;4817613;29;20099;-83
2022/12/26 12:53:00;;;;;;;5.25;3.75;;;;;;;9.28;100.00;100243.84;4805133;29;20050;-83
2022/12/26 12:55:39;;;;;;;5.60;3.75;;;;;;;9.26;100.00;100240.41;4800546;29;20089;-83
2022/12/26 12:58:18;;;;;;;6.90;4.25;;;;;;;9.31;100.00;100235.88;4813098;29;20046;-83
2022/12/26 13:00:57;;;;;;;5.95;4.22;;;;;;;9.33;100.00;100243.75;4803776;29;20043;-82
2022/12/26 13:03:34;;;;;;;7.47;4.72;;;;;;;9.36;100.00;100248.97;4806827;29;20047;-84
2022/12/26 13:06:05;;;;;;;6.68;4.22;;;;;;;9.41;100.00;100251.47;4789561;29;20043;-83
2022/12/26 13:08:39;;;;;;;6.50;4.18;;;;;;;9.40;100.00;100247.97;4819831;29;20042;-83
2022/12/26 13:11:11;;;;;;;;;;;;;;;9.40;100.00;100241.84;4810814;29;20429;-83
2022/12/26 13:13:47;;;;;;;7.20;4.90;;;;;;;9.40;100.00;100242.72;4808170;29;20369;-84
2022/12/26 13:16:25;;;;;;;7.05;4.22;;;;;;;9.50;100.00;100240.72;4811204;29;20110;-84
2022/12/26 13:18:57;;;;;;;7.33;4.73;;;;;;;9.53;100.00;100231.00;4806511;29;20496;-84
2022/12/26 13:21:24;;;;;;;7.50;4.70;;;;;;;9.60;100.00;100239.63;4823393;29;20038;-83
2022/12/26 13:26:44;;;;;;;8.05;5.00;;;;;;;9.66;100.00;100238.59;4824979;29;20038;-83
2022/12/26 13:29:15;;;;;;;6.80;4.60;;;;;;;9.69;100.00;100243.84;4801640;29;20099;-84
2022/12/26 13:31:43;;;;;;;6.70;4.30;;;;;;;9.72;100.00;100251.66;4824406;29;20042;-83
2022/12/26 13:34:15;;;;;;;7.38;5.07;;;;;;;9.68;100.00;100248.25;4825870;29;20038;-84
2022/12/26 13:36:51;;;;;;;6.10;4.57;;;;;;;9.64;100.00;100256.25;4805162;29;20708;-84
2022/12/26 13:39:23;;;;;;;8.32;4.80;;;;;;;9.60;100.00;100250.19;4793027;29;20084;-83
2022/12/26 13:45:36;;;;;;;5.38;4.03;;;;;;;9.44;100.00;100254.94;4803564;29;20038;-84
2022/12/26 13:48:15;;;;;;;6.90;5.18;;;;;;;9.44;100.00;100249.66;4810850;29;20050;-83
2022/12/26 13:50:56;;;;;;;9.55;5.10;;;;;;;9.40;100.00;100253.25;4825574;29;20058;-82
2022/12/26 13:53:23;;;;;;;6.75;4.30;;;;;;;9.41;100.00;100260.25;4823964;29;20047;-83
2022/12/26 13:56:15;;;;;;;5.85;4.18;;;;;;;9.40;100.00;100263.81;4807173;29;20042;-83